Time,TemperatureF,DewpointF,PressureIn,WindDirection,WindDirectionDegrees,WindSpeedMPH,WindSpeedGustMPH,Humidity,HourlyPrecipIn,Conditions,Clouds,dailyrainin,SolarRadiationWatts/m^2,SoftwareType,DateUTC
2013-03-11 00:22:00,64.0,63.0,-100.00,SSW,192,3.0,5.0,98,0.00,,,0.15,0.000000,,2013-03-11 10:22:00,
2013-03-11 00:32:00,64.0,63.0,-100.00,SSW,192,3.0,5.0,98,0.00,,,0.15,0.000000,,2013-03-11 10:32:00,
2013-03-11 00:42:00,64.0,63.0,-100.00,SSW,192,3.0,5.0,98,0.00,,,0.15,0.000000,,2013-03-11 10:42:00,
2013-03-11 00:52:00,64.0,63.0,-100.00,SSW,192,3.0,5.0,98,0.00,,,0.15,0.000000,,2013-03-11 10:52:00,
2013-03-11 01:22:00,64.0,64.0,-100.00,South,183,4.0,5.0,100,0.00,,,-99.99,0.000000,,2013-03-11 11:22:00,
2013-03-11 01:32:00,64.0,64.0,-100.00,South,183,4.0,5.0,100,0.00,,,-99.99,0.000000,,2013-03-11 11:32:00,
2013-03-11 01:42:00,64.0,64.0,-100.00,South,183,4.0,5.0,100,0.00,,,-99.99,0.000000,,2013-03-11 11:42:00,
2013-03-11 01:52:00,64.0,64.0,-100.00,South,183,4.0,5.0,100,0.00,,,-99.99,0.000000,,2013-03-11 11:52:00,
2013-03-11 02:22:00,65.0,65.0,-100.00,South,179,3.0,5.0,100,0.00,,,-99.99,0.000000,,2013-03-11 12:22:00,
2013-03-11 02:32:00,65.0,65.0,-100.00,South,179,3.0,5.0,100,0.00,,,-99.99,0.000000,,2013-03-11 12:32:00,
2013-03-11 02:42:00,65.0,65.0,-100.00,South,179,3.0,5.0,100,0.00,,,-99.99,0.000000,,2013-03-11 12:42:00,
2013-03-11 02:52:00,65.0,65.0,-100.00,South,179,3.0,5.0,100,0.00,,,-99.99,0.000000,,2013-03-11 12:52:00,
2013-03-11 03:22:00,62.0,62.0,-100.00,South,187,3.0,5.0,100,0.00,,,-99.99,0.000000,,2013-03-11 13:22:00,
2013-03-11 03:32:00,62.0,62.0,-100.00,South,187,3.0,5.0,100,0.00,,,-99.99,0.000000,,2013-03-11 13:32:00,
2013-03-11 03:42:00,62.0,62.0,-100.00,South,187,3.0,5.0,100,0.00,,,-99.99,0.000000,,2013-03-11 13:42:00,
2013-03-11 03:52:00,62.0,62.0,-100.00,South,187,3.0,5.0,100,0.00,,,-99.99,0.000000,,2013-03-11 13:52:00,
2013-03-11 04:22:00,62.0,62.0,-100.00,SSE,163,4.0,6.0,100,0.00,,,0.15,0.000000,,2013-03-11 14:22:00,
2013-03-11 04:32:00,62.0,62.0,-100.00,SSE,163,4.0,6.0,100,0.00,,,0.15,0.000000,,2013-03-11 14:32:00,
2013-03-11 04:42:00,62.0,62.0,-100.00,SSE,163,4.0,6.0,100,0.00,,,0.15,0.000000,,2013-03-11 14:42:00,
2013-03-11 04:52:00,62.0,62.0,-100.00,SSE,163,4.0,6.0,100,0.00,,,0.15,0.000000,,2013-03-11 14:52:00,
2013-03-11 05:22:00,62.0,62.0,-100.00,South,185,3.0,5.0,100,0.00,,,0.13,0.000000,,2013-03-11 15:22:00,
2013-03-11 05:32:00,62.0,62.0,-100.00,South,185,3.0,5.0,100,0.00,,,0.13,0.000000,,2013-03-11 15:32:00,
2013-03-11 05:42:00,62.0,62.0,-100.00,South,185,3.0,5.0,100,0.00,,,0.13,0.000000,,2013-03-11 15:42:00,
2013-03-11 05:52:00,62.0,62.0,-100.00,South,185,3.0,5.0,100,0.00,,,0.13,0.000000,,2013-03-11 15:52:00,
2013-03-11 06:22:00,62.0,62.0,-100.00,South,176,3.0,6.0,100,0.00,,,0.13,0.000000,,2013-03-11 16:22:00,
2013-03-11 06:32:00,62.0,62.0,-100.00,South,176,3.0,6.0,100,0.00,,,0.13,0.000000,,2013-03-11 16:32:00,
2013-03-11 06:42:00,62.0,62.0,-100.00,South,176,3.0,6.0,100,0.00,,,0.13,0.000000,,2013-03-11 16:42:00,
2013-03-11 06:52:00,62.0,62.0,-100.00,South,176,3.0,6.0,100,0.00,,,0.13,0.000000,,2013-03-11 16:52:00,
2013-03-11 07:24:00,63.0,63.0,-100.00,WNW,296,1.0,5.0,100,0.00,,,-99.99,2.000000,,2013-03-11 17:24:00,
2013-03-11 07:34:00,63.0,63.0,-100.00,WNW,296,1.0,5.0,100,0.00,,,-99.99,2.000000,,2013-03-11 17:34:00,
2013-03-11 07:42:00,63.0,63.0,-100.00,WNW,296,1.0,5.0,100,0.00,,,-99.99,2.000000,,2013-03-11 17:42:00,
2013-03-11 07:52:00,63.0,63.0,-100.00,WNW,296,1.0,5.0,100,0.00,,,-99.99,2.000000,,2013-03-11 17:52:00,
2013-03-11 08:22:00,67.0,67.0,-100.00,ESE,115,2.0,5.0,100,0.00,,,0.02,63.000000,,2013-03-11 18:22:00,
2013-03-11 08:32:00,67.0,67.0,-100.00,ESE,115,2.0,5.0,100,0.00,,,0.02,63.000000,,2013-03-11 18:32:00,
2013-03-11 08:42:00,67.0,67.0,-100.00,ESE,115,2.0,5.0,100,0.00,,,0.02,63.000000,,2013-03-11 18:42:00,
2013-03-11 08:52:00,67.0,67.0,-100.00,ESE,115,2.0,5.0,100,0.00,,,0.02,63.000000,,2013-03-11 18:52:00,
2013-03-11 09:22:00,73.0,69.0,-100.00,East,100,2.0,6.0,87,0.00,,,0.00,215.000000,,2013-03-11 19:22:00,
2013-03-11 09:32:00,73.0,69.0,-100.00,East,100,2.0,6.0,87,0.00,,,0.00,215.000000,,2013-03-11 19:32:00,
2013-03-11 09:42:00,73.0,69.0,-100.00,East,100,2.0,6.0,87,0.00,,,0.00,215.000000,,2013-03-11 19:42:00,
2013-03-11 09:52:00,73.0,69.0,-100.00,East,100,2.0,6.0,87,0.00,,,0.00,215.000000,,2013-03-11 19:52:00,
2013-03-11 10:22:00,73.0,66.0,-100.00,NE,54,3.0,9.0,79,0.01,,,0.01,485.000000,,2013-03-11 20:22:00,
2013-03-11 10:32:00,73.0,66.0,-100.00,NE,54,3.0,9.0,79,0.01,,,0.01,485.000000,,2013-03-11 20:32:00,
2013-03-11 10:43:00,73.0,66.0,-100.00,NE,54,3.0,9.0,79,0.01,,,0.01,485.000000,,2013-03-11 20:43:00,
2013-03-11 10:52:00,73.0,66.0,-100.00,NE,54,3.0,9.0,79,0.01,,,0.01,485.000000,,2013-03-11 20:52:00,
2013-03-11 11:22:00,71.0,65.0,-100.00,NE,40,5.0,10.0,80,0.00,,,-99.99,346.000000,,2013-03-11 21:22:00,
2013-03-11 11:32:00,71.0,65.0,-100.00,NE,40,5.0,10.0,80,0.00,,,-99.99,346.000000,,2013-03-11 21:32:00,
2013-03-11 11:43:00,71.0,65.0,-100.00,NE,40,5.0,10.0,80,0.00,,,-99.99,346.000000,,2013-03-11 21:43:00,
2013-03-11 11:52:00,71.0,65.0,-100.00,NE,40,5.0,10.0,80,0.00,,,-99.99,346.000000,,2013-03-11 21:52:00,
2013-03-11 12:22:00,71.0,65.0,-100.00,NE,46,5.0,9.0,82,0.00,,,0.01,259.000000,,2013-03-11 22:22:00,
2013-03-11 12:32:00,71.0,65.0,-100.00,NE,46,5.0,9.0,82,0.00,,,0.01,259.000000,,2013-03-11 22:32:00,
2013-03-11 12:43:00,71.0,65.0,-100.00,NE,46,5.0,9.0,82,0.00,,,0.01,259.000000,,2013-03-11 22:43:00,
2013-03-11 12:52:00,71.0,65.0,-100.00,NE,46,5.0,9.0,82,0.00,,,0.01,259.000000,,2013-03-11 22:52:00,
2013-03-11 13:22:00,76.0,66.0,-100.00,ENE,74,6.0,11.0,72,0.00,,,0.01,516.000000,,2013-03-11 23:22:00,
2013-03-11 13:32:00,76.0,66.0,-100.00,ENE,74,6.0,11.0,72,0.00,,,0.01,516.000000,,2013-03-11 23:32:00,
2013-03-11 13:43:00,76.0,66.0,-100.00,ENE,74,6.0,11.0,72,0.00,,,0.01,516.000000,,2013-03-11 23:43:00,
2013-03-11 13:52:00,76.0,66.0,-100.00,ENE,74,6.0,11.0,72,0.00,,,0.01,516.000000,,2013-03-11 23:52:00,
2013-03-11 14:22:00,73.0,65.0,-100.00,East,91,6.0,13.0,76,0.00,,,0.01,476.000000,,2013-03-12 00:22:00,
2013-03-11 14:32:00,73.0,65.0,-100.00,East,91,6.0,13.0,76,0.00,,,0.01,476.000000,,2013-03-12 00:32:00,
2013-03-11 14:42:00,73.0,65.0,-100.00,East,91,6.0,13.0,76,0.00,,,0.01,476.000000,,2013-03-12 00:42:00,
2013-03-11 14:52:00,73.0,65.0,-100.00,East,91,6.0,13.0,76,0.00,,,0.01,476.000000,,2013-03-12 00:52:00,
2013-03-11 15:22:00,73.0,63.0,-100.00,ENE,66,5.0,13.0,72,0.00,,,0.01,542.000000,,2013-03-12 01:22:00,
2013-03-11 15:32:00,73.0,63.0,-100.00,ENE,66,5.0,13.0,72,0.00,,,0.01,542.000000,,2013-03-12 01:32:00,
2013-03-11 15:42:00,73.0,63.0,-100.00,ENE,66,5.0,13.0,72,0.00,,,0.01,542.000000,,2013-03-12 01:42:00,
2013-03-11 15:52:00,73.0,63.0,-100.00,ENE,66,5.0,13.0,72,0.00,,,0.01,542.000000,,2013-03-12 01:52:00,
2013-03-11 16:22:00,75.0,64.0,-100.00,East,97,6.0,14.0,68,0.00,,,0.01,510.000000,,2013-03-12 02:22:00,
2013-03-11 16:32:00,75.0,64.0,-100.00,East,97,6.0,14.0,68,0.00,,,0.01,510.000000,,2013-03-12 02:32:00,
2013-03-11 16:42:00,75.0,64.0,-100.00,East,97,6.0,14.0,68,0.00,,,0.01,510.000000,,2013-03-12 02:42:00,
2013-03-11 16:51:00,75.0,64.0,-100.00,East,97,6.0,14.0,68,0.00,,,0.01,510.000000,,2013-03-12 02:51:00,
2013-03-11 17:22:00,73.0,63.0,-100.00,ENE,59,4.0,15.0,70,0.00,,,0.01,463.000000,,2013-03-12 03:22:00,
2013-03-11 17:32:00,73.0,63.0,-100.00,ENE,59,4.0,15.0,70,0.00,,,0.01,463.000000,,2013-03-12 03:32:00,
2013-03-11 17:42:00,73.0,63.0,-100.00,ENE,59,4.0,15.0,70,0.00,,,0.01,463.000000,,2013-03-12 03:42:00,
2013-03-11 17:51:00,73.0,63.0,-100.00,ENE,59,4.0,15.0,70,0.00,,,0.01,463.000000,,2013-03-12 03:51:00,
2013-03-11 18:22:00,71.0,63.0,-100.00,ENE,69,4.0,12.0,76,0.00,,,0.01,170.000000,,2013-03-12 04:22:00,
2013-03-11 18:32:00,71.0,63.0,-100.00,ENE,69,4.0,12.0,76,0.00,,,0.01,170.000000,,2013-03-12 04:32:00,
2013-03-11 18:42:00,71.0,63.0,-100.00,ENE,69,4.0,12.0,76,0.00,,,0.01,170.000000,,2013-03-12 04:42:00,
2013-03-11 18:52:00,71.0,63.0,-100.00,ENE,69,4.0,12.0,76,0.00,,,0.01,170.000000,,2013-03-12 04:52:00,
2013-03-11 19:22:00,69.0,64.0,-100.00,SSE,157,1.0,7.0,85,0.00,,,0.01,8.000000,,2013-03-12 05:22:00,
2013-03-11 19:32:00,69.0,64.0,-100.00,SSE,157,1.0,7.0,85,0.00,,,0.01,8.000000,,2013-03-12 05:32:00,
2013-03-11 19:42:00,69.0,64.0,-100.00,SSE,157,1.0,7.0,85,0.00,,,0.01,8.000000,,2013-03-12 05:42:00,
2013-03-11 19:52:00,69.0,64.0,-100.00,SSE,157,1.0,7.0,85,0.00,,,0.01,8.000000,,2013-03-12 05:52:00,
2013-03-11 20:22:00,66.0,64.0,-100.00,SE,139,2.0,4.0,92,0.00,,,0.01,0.000000,,2013-03-12 06:22:00,
2013-03-11 20:32:00,66.0,64.0,-100.00,SE,139,2.0,4.0,92,0.00,,,0.01,0.000000,,2013-03-12 06:32:00,
2013-03-11 20:42:00,66.0,64.0,-100.00,SE,139,2.0,4.0,92,0.00,,,0.01,0.000000,,2013-03-12 06:42:00,
2013-03-11 20:52:00,66.0,64.0,-100.00,SE,139,2.0,4.0,92,0.00,,,0.01,0.000000,,2013-03-12 06:52:00,
2013-03-11 21:21:00,65.0,63.0,-100.00,SE,130,3.0,5.0,94,0.00,,,0.01,0.000000,,2013-03-12 07:21:00,
2013-03-11 21:32:00,65.0,63.0,-100.00,SE,130,3.0,5.0,94,0.00,,,0.01,0.000000,,2013-03-12 07:32:00,
2013-03-11 21:42:00,65.0,63.0,-100.00,SE,130,3.0,5.0,94,0.00,,,0.01,0.000000,,2013-03-12 07:42:00,
2013-03-11 21:52:00,65.0,63.0,-100.00,SE,130,3.0,5.0,94,0.00,,,0.01,0.000000,,2013-03-12 07:52:00,
2013-03-11 22:22:00,64.0,63.0,-100.00,SSE,154,2.0,5.0,96,0.00,,,0.01,0.000000,,2013-03-12 08:22:00,
2013-03-11 22:32:00,64.0,63.0,-100.00,SSE,154,2.0,5.0,96,0.00,,,0.01,0.000000,,2013-03-12 08:32:00,
2013-03-11 22:42:00,64.0,63.0,-100.00,SSE,154,2.0,5.0,96,0.00,,,0.01,0.000000,,2013-03-12 08:42:00,
2013-03-11 22:51:00,64.0,63.0,-100.00,SSE,154,2.0,5.0,96,0.00,,,0.01,0.000000,,2013-03-12 08:51:00,
2013-03-11 23:22:00,65.0,63.0,-100.00,SSE,164,2.0,4.0,92,0.00,,,0.01,0.000000,,2013-03-12 09:22:00,
2013-03-11 23:32:00,65.0,63.0,-100.00,SSE,164,2.0,4.0,92,0.00,,,0.01,0.000000,,2013-03-12 09:32:00,
2013-03-11 23:42:00,65.0,63.0,-100.00,SSE,164,2.0,4.0,92,0.00,,,0.01,0.000000,,2013-03-12 09:42:00,
2013-03-11 23:52:00,65.0,63.0,-100.00,SSE,164,2.0,4.0,92,0.00,,,0.01,0.000000,,2013-03-12 09:52:00,